Time;durP1;ratioP1;P1;durP2;ratioP2;P2;SDS_P1;SDS_P2;PMS_P1;PMS_P2;Temp;Humidity;BMP_temperature;BMP_pressure;BME280_temperature;BME280_humidity;BME280_pressure;Samples;Min_cycle;Max_cycle;Signal;HPM_P1;HPM_P2
2022/08/10 00:02:31;;;;;;;;;10.00;9.25;;;;;25.86;36.88;101624.91;5077066;28;45460;-91
2022/08/10 00:04:57;;;;;;;;;8.25;8.25;;;;;25.74;36.81;101604.38;5093044;27;45529;-89
2022/08/10 00:07:22;;;;;;;;;7.75;7.75;;;;;25.85;36.71;101624.91;5077002;28;45674;-91
2022/08/10 00:09:47;;;;;;;;;6.75;6.75;;;;;25.65;37.10;101592.84;5077523;27;45596;-91
2022/08/10 00:12:13;;;;;;;;;9.00;9.00;;;;;25.73;36.94;101608.00;5091903;27;46071;-86
2022/08/10 00:14:38;;;;;;;;;8.00;8.00;;;;;25.81;36.51;101617.78;5077165;27;45274;-89
2022/08/10 00:17:03;;;;;;;;;6.25;6.25;;;;;25.63;37.21;101592.00;5076045;28;45502;-91
2022/08/10 00:19:29;;;;;;;;;10.00;9.00;;;;;25.61;36.68;101600.06;5076844;28;45474;-90
2022/08/10 00:21:54;;;;;;;;;9.50;9.50;;;;;25.61;37.10;101610.84;5076120;28;54386;-90
2022/08/10 00:24:19;;;;;;;;;9.00;9.00;;;;;25.71;36.97;101628.69;5076681;28;45297;-92
2022/08/10 00:26:44;;;;;;;;;9.50;9.25;;;;;25.63;36.86;101622.50;5075814;28;45475;-92
2022/08/10 00:29:10;;;;;;;;;8.75;8.75;;;;;25.62;37.15;101618.03;5092208;27;47761;-91
2022/08/10 00:31:35;;;;;;;;;7.00;7.00;;;;;25.65;37.18;101628.75;5076912;28;45401;-92
2022/08/10 00:34:01;;;;;;;;;7.25;6.75;;;;;25.52;37.35;101616.38;5092710;27;45430;-89
2022/08/10 00:36:26;;;;;;;;;8.00;8.00;;;;;25.53;37.68;101615.47;5075529;28;45369;-91
2022/08/10 00:38:52;;;;;;;;;8.00;8.00;;;;;25.40;37.73;101590.50;5076333;28;52202;-87
2022/08/10 00:41:17;;;;;;;;;7.50;7.50;;;;;25.43;37.02;101598.53;5076791;27;45483;-88
2022/08/10 00:43:42;;;;;;;;;8.00;7.25;;;;;25.31;37.31;101589.72;5092716;27;45295;-91
2022/08/10 00:46:07;;;;;;;;;8.00;8.00;;;;;25.53;37.30;101623.53;5076686;27;45311;-89
2022/08/10 00:48:33;;;;;;;;;9.25;9.00;;;;;25.36;37.65;101609.41;5074856;28;52431;-89
2022/08/10 00:50:59;;;;;;;;;9.50;9.00;;;;;25.45;37.39;101638.88;5076265;28;45320;-91
2022/08/10 00:53:28;;;;;;;;;8.75;8.75;;;;;25.24;37.87;101585.34;5076734;28;45455;-89
2022/08/10 00:55:54;;;;;;;;;10.75;9.75;;;;;25.31;37.76;101612.16;5076419;28;45479;-89
2022/08/10 00:58:20;;;;;;;;;7.75;7.50;;;;;25.29;37.94;101610.41;5092005;27;46499;-88
2022/08/10 01:00:47;;;;;;;;;9.25;9.25;;;;;25.15;37.72;101589.94;5075094;28;45526;-85
2022/08/10 01:03:13;;;;;;;;;7.50;7.50;;;;;25.24;37.75;101605.06;5076022;28;45959;-89
2022/08/10 01:05:54;;;;;;;;;10.00;8.75;;;;;25.26;38.33;101616.69;5075619;28;45480;-85
2022/08/10 01:08:43;;;;;;;;;8.50;8.25;;;;;25.16;38.08;101602.47;5075332;28;45438;-82
2022/08/10 01:11:16;;;;;;;;;9.75;8.75;;;;;25.21;38.41;101626.63;5092054;27;45914;-86
2022/08/10 01:13:56;;;;;;;;;9.00;9.00;;;;;25.09;37.90;101616.91;5075564;27;45258;-88
2022/08/10 01:16:47;;;;;;;;;9.00;8.50;;;;;25.14;37.88;101617.75;5075954;27;45498;-87
2022/08/10 01:19:18;;;;;;;;;7.25;7.25;;;;;25.10;38.58;101626.75;5074548;28;47057;-89
2022/08/10 01:22:04;;;;;;;;;10.25;9.00;;;;;25.08;38.01;101615.13;5076033;28;45438;-91
2022/08/10 01:24:29;;;;;;;;;7.75;7.75;;;;;25.04;38.26;101624.09;5064098;28;45383;-91
2022/08/10 01:27:15;;;;;;;;;9.00;8.00;;;;;25.02;38.30;101625.91;5091761;27;45455;-86
2022/08/10 01:29:53;;;;;;;;;9.00;9.00;;;;;25.00;38.94;101627.72;5073086;27;47391;-82
2022/08/10 01:32:29;;;;;;;;;7.00;7.00;;;;;24.82;38.53;101599.22;5075330;28;45386;-85
2022/08/10 01:35:04;;;;;;;;;9.00;8.75;;;;;24.89;38.64;101611.72;5090791;27;45401;-86
2022/08/10 01:37:35;;;;;;;;;7.75;7.25;;;;;24.80;38.97;101595.69;5091258;27;45477;-87
2022/08/10 01:40:05;;;;;;;;;9.00;8.75;;;;;24.87;38.64;101602.75;5074963;28;46436;-83
2022/08/10 01:42:36;;;;;;;;;7.00;6.50;;;;;24.80;38.65;101605.53;5073604;28;45997;-85
2022/08/10 01:45:04;;;;;;;;;7.50;7.50;;;;;24.86;38.92;101629.66;5073920;28;45527;-85
2022/08/10 01:50:24;;;;;;;;;7.25;6.75;;;;;24.75;38.81;101613.66;5074617;28;45473;-84
2022/08/10 01:52:51;;;;;;;;;9.00;8.25;;;;;24.62;38.87;101594.06;5074965;28;45824;-86
2022/08/10 01:55:19;;;;;;;;;9.00;8.50;;;;;24.63;39.03;101608.38;5075372;28;45474;-87
2022/08/10 01:57:46;;;;;;;;;10.25;10.00;;;;;24.44;39.84;101576.31;5074755;28;45376;-84
2022/08/10 02:00:12;;;;;;;;;8.25;7.75;;;;;24.59;39.36;101599.47;5074448;28;46584;-85
2022/08/10 02:02:40;;;;;;;;;8.25;8.25;;;;;24.52;39.55;101596.84;5090989;27;46296;-86
2022/08/10 02:05:07;;;;;;;;;8.75;8.75;;;;;24.59;39.50;101606.66;5074350;28;45370;-85
2022/08/10 02:07:35;;;;;;;;;9.00;8.50;;;;;24.55;39.22;101608.47;5074799;28;45470;-83
2022/08/10 02:10:05;;;;;;;;;9.00;9.00;;;;;24.60;39.23;101613.81;5090042;27;47868;-82
2022/08/10 02:12:32;;;;;;;;;8.50;8.00;;;;;24.54;39.73;101605.81;5073127;28;45849;-86
2022/08/10 02:15:02;;;;;;;;;7.75;7.25;;;;;24.56;39.14;101612.94;5090731;27;45326;-85
2022/08/10 02:17:35;;;;;;;;;8.25;8.00;;;;;24.40;40.11;101588.00;5074705;28;45532;-84
2022/08/10 02:20:22;;;;;;;;;9.00;9.00;;;;;24.54;39.49;101614.75;5072734;27;46656;-87
2022/08/10 02:22:56;;;;;;;;;9.00;7.75;;;;;24.32;39.86;101580.88;5074374;28;45501;-83
2022/08/10 02:25:24;;;;;;;;;6.75;6.50;;;;;24.29;39.58;101579.13;5073089;28;45492;-87
2022/08/10 02:27:50;;;;;;;;;7.00;7.00;;;;;24.38;39.75;101607.72;5090118;27;45400;-89
2022/08/10 02:30:17;;;;;;;;;9.00;8.50;;;;;24.26;40.09;101589.00;5089802;27;48846;-88
2022/08/10 02:32:45;;;;;;;;;8.00;8.00;;;;;24.37;40.03;101609.53;5074739;28;45860;-85
2022/08/10 02:35:13;;;;;;;;;9.25;9.00;;;;;24.41;40.01;101619.34;5073254;28;45475;-87
2022/08/10 02:37:41;;;;;;;;;9.25;9.25;;;;;24.39;39.73;101610.41;5074269;28;45360;-88
2022/08/10 02:40:07;;;;;;;;;7.50;7.50;;;;;24.30;39.63;101593.44;5074218;28;45489;-90
2022/08/10 02:42:43;;;;;;;;;8.00;8.00;;;;;24.29;39.76;101597.94;5089830;27;45385;-81
2022/08/10 02:45:16;;;;;;;;;9.25;9.25;;;;;24.26;40.22;101599.75;5074252;27;45352;-84
2022/08/10 02:47:47;;;;;;;;;9.75;9.00;;;;;24.28;39.71;101593.44;5072713;28;45318;-86
2022/08/10 02:50:18;;;;;;;;;10.25;9.50;;;;;24.30;39.88;101607.75;5073484;28;46635;-86
2022/08/10 02:52:47;;;;;;;;;9.00;9.00;;;;;24.15;40.23;101587.28;5073981;28;45364;-88
2022/08/10 02:55:29;;;;;;;;;9.00;8.25;;;;;24.10;39.77;101582.88;5074396;28;45457;-86
2022/08/10 02:57:57;;;;;;;;;8.25;8.25;;;;;24.14;40.35;101598.06;5074084;28;45459;-85
2022/08/10 03:00:24;;;;;;;;;9.00;9.00;;;;;24.09;40.67;101587.34;5074153;27;46384;-82
2022/08/10 03:02:52;;;;;;;;;8.00;8.00;;;;;24.12;40.57;101602.53;5074067;28;45849;-82
2022/08/10 03:05:20;;;;;;;;;8.50;8.00;;;;;24.19;40.45;101621.28;5089631;27;45479;-85
2022/08/10 03:07:52;;;;;;;;;8.00;7.25;;;;;23.96;40.56;101585.66;5074567;27;45489;-90
2022/08/10 03:10:23;;;;;;;;;8.00;8.00;;;;;24.04;40.19;101601.69;5074608;28;46801;-91
2022/08/10 03:12:55;;;;;;;;;7.50;7.25;;;;;24.13;40.32;101621.31;5073030;28;46131;-88
2022/08/10 03:15:22;;;;;;;;;8.75;8.75;;;;;23.93;40.56;101591.03;5074251;28;45437;-92
2022/08/10 03:17:50;;;;;;;;;7.00;7.00;;;;;24.03;40.76;101606.16;5074302;28;45429;-89
2022/08/10 03:20:18;;;;;;;;;10.25;9.50;;;;;23.91;40.39;101579.41;5073845;28;46652;-89
2022/08/10 03:22:45;;;;;;;;;9.50;8.00;;;;;23.83;40.41;101581.25;5074021;28;46073;-91
2022/08/10 03:25:12;;;;;;;;;8.25;8.00;;;;;23.99;40.38;101607.13;5074330;28;45385;-89
2022/08/10 03:27:40;;;;;;;;;9.25;9.00;;;;;23.89;40.91;101583.88;5074401;28;45338;-90
2022/08/10 03:30:06;;;;;;;;;8.00;8.00;;;;;23.87;40.81;101580.34;5089749;27;46915;-90
2022/08/10 03:32:32;;;;;;;;;8.25;8.00;;;;;23.94;40.92;101601.78;5089919;27;45991;-87
2022/08/10 03:34:59;;;;;;;;;9.25;9.00;;;;;23.87;41.45;101586.59;5073512;28;45437;-91
2022/08/10 03:37:26;;;;;;;;;8.00;8.00;;;;;23.86;41.25;101592.88;5073961;27;45460;-90
2022/08/10 03:39:53;;;;;;;;;8.75;8.75;;;;;23.66;41.02;101574.22;5089899;27;48284;-91
2022/08/10 03:42:21;;;;;;;;;9.00;9.00;;;;;23.78;41.95;101599.19;5074050;28;45324;-89
2022/08/10 03:44:48;;;;;;;;;8.25;8.25;;;;;23.70;41.34;101590.31;5072977;28;45473;-89
2022/08/10 03:47:16;;;;;;;;;9.00;9.00;;;;;23.70;41.57;101595.69;5075508;28;45571;-88
2022/08/10 03:49:43;;;;;;;;;7.75;7.75;;;;;23.44;41.48;101565.34;5092728;27;46700;-90
2022/08/10 03:52:09;;;;;;;;;8.50;8.50;;;;;23.51;41.26;101571.59;5077304;28;45861;-91
2022/08/10 03:54:34;;;;;;;;;10.25;9.25;;;;;23.60;41.73;101605.53;5077597;27;45333;-90
2022/08/10 03:57:00;;;;;;;;;10.00;10.00;;;;;23.48;41.57;101593.06;5077436;28;46235;-89
2022/08/10 03:59:26;;;;;;;;;7.00;7.00;;;;;23.58;41.07;101596.59;5077252;28;46150;-89
2022/08/10 04:01:53;;;;;;;;;8.00;8.00;;;;;23.46;41.66;101572.50;5077362;28;45392;-89
2022/08/10 04:04:19;;;;;;;;;8.75;8.75;;;;;23.59;41.95;101603.72;5076226;28;45327;-81
2022/08/10 04:06:45;;;;;;;;;7.75;7.25;;;;;23.60;41.84;101616.28;5076259;28;45428;-86
2022/08/10 04:09:11;;;;;;;;;8.00;8.00;;;;;23.32;41.84;101569.91;5074824;28;46104;-85
2022/08/10 04:11:36;;;;;;;;;9.75;9.75;;;;;23.38;41.84;101578.78;5076398;28;45310;-84
2022/08/10 04:14:03;;;;;;;;;10.00;9.50;;;;;23.34;41.56;101578.81;5076447;28;45436;-85
2022/08/10 04:16:28;;;;;;;;;9.75;9.75;;;;;23.53;42.12;101615.38;5076255;28;45618;-87
2022/08/10 04:18:53;;;;;;;;;9.25;9.25;;;;;23.34;41.67;101584.19;5074510;28;55992;-82
2022/08/10 04:21:35;;;;;;;;;8.25;8.25;;;;;23.43;41.60;101605.59;5075906;28;45274;-87
2022/08/10 04:24:02;;;;;;;;;8.25;8.25;;;;;23.36;41.88;101595.81;5075200;28;45243;-88
2022/08/10 04:26:28;;;;;;;;;8.50;8.50;;;;;23.42;41.53;101609.19;5076007;28;45338;-81
2022/08/10 04:28:54;;;;;;;;;9.00;8.25;;;;;23.44;42.04;101612.75;5074584;28;48653;-82
2022/08/10 04:31:21;;;;;;;;;9.00;9.00;;;;;23.24;42.07;101591.38;5076084;28;45500;-82
2022/08/10 04:33:49;;;;;;;;;9.75;9.75;;;;;23.26;42.07;101599.44;5075946;27;45286;-85
2022/08/10 04:36:16;;;;;;;;;10.25;10.00;;;;;23.36;42.43;101631.56;5074087;28;45504;-83
2022/08/10 04:38:42;;;;;;;;;8.00;8.00;;;;;23.34;42.44;101617.25;5074114;28;46389;-83
2022/08/10 04:41:08;;;;;;;;;6.75;6.75;;;;;23.16;42.01;101596.78;5075919;28;45455;-85
2022/08/10 04:43:34;;;;;;;;;9.00;8.25;;;;;23.24;42.54;101618.19;5075950;28;45494;-89
2022/08/10 04:45:59;;;;;;;;;9.75;9.25;;;;;23.24;42.63;101620.88;5091807;27;45543;-83
2022/08/10 04:48:25;;;;;;;;;9.00;8.00;;;;;23.02;42.73;101587.00;5076482;28;46877;-86
2022/08/10 04:50:51;;;;;;;;;9.50;9.50;;;;;23.03;42.80;101592.34;5075571;28;45313;-86
2022/08/10 04:53:19;;;;;;;;;7.25;7.25;;;;;23.04;42.95;101595.91;5092322;27;45489;-90
2022/08/10 04:55:44;;;;;;;;;8.75;8.75;;;;;22.92;42.66;101586.13;5076436;28;45470;-90
2022/08/10 04:58:10;;;;;;;;;7.00;7.00;;;;;22.92;42.84;101583.47;5075798;28;45548;-91
2022/08/10 05:00:35;;;;;;;;;8.25;8.25;;;;;22.93;43.35;101595.97;5076114;28;45299;-89
2022/08/10 05:03:00;;;;;;;;;7.00;6.75;;;;;22.79;42.84;101570.94;5075115;28;45730;-91
2022/08/10 05:05:26;;;;;;;;;9.00;8.00;;;;;22.93;43.28;101604.00;5074606;28;45446;-86
2022/08/10 05:07:51;;;;;;;;;8.25;8.25;;;;;22.88;42.71;101600.41;5075862;28;46493;-89
2022/08/10 05:10:16;;;;;;;;;8.00;8.00;;;;;22.98;43.52;101617.41;5076112;28;45410;-89
2022/08/10 05:12:41;;;;;;;;;7.00;7.00;;;;;22.87;43.31;101601.31;5076463;27;45413;-90
2022/08/10 05:15:10;;;;;;;;;8.00;7.00;;;;;23.07;43.34;101637.03;5075976;28;47983;-87
2022/08/10 05:17:37;;;;;;;;;8.75;8.50;;;;;23.09;43.48;101639.72;5075872;28;45551;-88
2022/08/10 05:20:04;;;;;;;;;7.25;7.00;;;;;22.89;43.88;101599.53;5075731;28;45472;-91
2022/08/10 05:22:29;;;;;;;;;8.25;7.75;;;;;22.86;43.31;101602.22;5075965;28;45299;-89
2022/08/10 05:24:55;;;;;;;;;7.00;7.00;;;;;22.83;43.41;101602.22;5076104;28;45350;-87
2022/08/10 05:27:20;;;;;;;;;7.25;7.25;;;;;22.89;42.96;101604.91;5074406;28;60013;-89
2022/08/10 05:29:46;;;;;;;;;7.00;6.75;;;;;22.94;43.56;101618.28;5075732;28;45217;-92
2022/08/10 05:32:11;;;;;;;;;6.25;6.25;;;;;22.94;43.26;101618.28;5074869;28;45365;-89
2022/08/10 05:34:37;;;;;;;;;7.75;7.25;;;;;23.09;43.50;101640.59;5075887;28;45406;-90
2022/08/10 05:37:02;;;;;;;;;7.75;7.00;;;;;23.09;43.72;101637.91;5074506;28;48291;-86
2022/08/10 05:39:28;;;;;;;;;8.00;7.00;;;;;23.06;43.64;101627.22;5075576;28;45527;-88
2022/08/10 05:41:54;;;;;;;;;10.00;9.00;;;;;22.96;43.48;101606.69;5075812;28;45294;-87
2022/08/10 05:44:21;;;;;;;;;9.25;9.25;;;;;22.86;43.60;101591.50;5076037;28;45361;-91
2022/08/10 05:46:49;;;;;;;;;8.00;7.25;;;;;23.08;43.68;101637.94;5074453;28;47428;-90
2022/08/10 05:49:14;;;;;;;;;8.25;6.25;;;;;22.97;43.31;101608.47;5091559;27;45908;-91
2022/08/10 05:51:40;;;;;;;;;9.00;7.50;;;;;22.94;43.34;101599.53;5074142;28;45915;-89
2022/08/10 05:54:13;;;;;;;;;6.75;6.75;;;;;23.08;43.55;101622.72;5075637;28;45354;-91
2022/08/10 05:56:41;;;;;;;;;9.00;8.00;;;;;23.08;43.55;101622.72;5074475;28;48111;-92
2022/08/10 05:59:07;;;;;;;;;7.25;7.25;;;;;23.18;43.53;101640.56;5075353;28;45388;-91
2022/08/10 06:01:35;;;;;;;;;8.00;7.50;;;;;23.17;43.71;101630.75;5074320;28;45612;-87
2022/08/10 06:04:02;;;;;;;;;7.50;7.50;;;;;23.14;43.82;101619.13;5075808;28;45796;-92
2022/08/10 06:06:33;;;;;;;;;8.00;8.00;;;;;23.27;43.58;101641.44;5075271;28;45444;-91
2022/08/10 06:08:59;;;;;;;;;6.75;6.50;;;;;23.24;43.38;101636.09;5075290;28;45294;-88
2022/08/10 06:11:27;;;;;;;;;8.75;8.75;;;;;23.32;43.22;101645.91;5073966;28;45322;-92
2022/08/10 06:16:38;;;;;;;;;7.50;7.50;;;;;23.14;43.38;101605.72;5054943;28;45673;-91
2022/08/10 06:19:05;;;;;;;;;8.00;8.00;;;;;23.27;43.37;101622.66;5055068;28;45310;-92
2022/08/10 06:21:32;;;;;;;;;8.50;7.75;;;;;23.21;43.71;101614.66;5054661;28;45441;-90
2022/08/10 06:23:59;;;;;;;;;8.25;8.25;;;;;23.27;43.54;101622.66;5054916;28;45290;-90
2022/08/10 06:26:24;;;;;;;;;10.25;10.00;;;;;23.34;43.32;101627.09;5053539;28;48630;-91
2022/08/10 06:28:55;;;;;;;;;9.25;8.75;;;;;23.20;43.34;101604.81;5036531;28;47137;-89
2022/08/10 06:31:22;;;;;;;;;6.75;6.75;;;;;23.30;43.13;101614.59;5053796;28;45475;-89
2022/08/10 06:33:50;;;;;;;;;9.50;9.50;;;;;23.51;43.19;101649.41;5055321;28;45347;-87
2022/08/10 06:36:17;;;;;;;;;10.00;9.00;;;;;23.47;43.10;101634.22;5053069;28;47244;-86
2022/08/10 06:38:44;;;;;;;;;7.25;7.25;;;;;23.31;43.09;101619.97;5054473;28;45340;-86
2022/08/10 06:41:17;;;;;;;;;9.25;9.00;;;;;23.43;43.11;101621.69;5054777;28;45390;-88
2022/08/10 06:43:49;;;;;;;;;8.25;8.00;;;;;23.53;43.36;101623.44;5054999;28;45638;-88
2022/08/10 06:46:19;;;;;;;;;9.00;8.25;;;;;23.61;43.22;101647.56;5054237;28;46578;-88
2022/08/10 06:48:45;;;;;;;;;9.50;8.50;;;;;23.77;43.09;101648.41;5054262;28;45373;-88
2022/08/10 06:51:35;;;;;;;;;9.67;9.67;;;;;23.55;42.46;101615.41;5054056;28;45360;-91
2022/08/10 06:54:05;;;;;;;;;8.25;8.25;;;;;23.67;42.92;101637.72;5035652;28;45483;-85
2022/08/10 06:56:34;;;;;;;;;9.25;9.25;;;;;23.71;42.70;101635.03;5052839;28;46009;-87
2022/08/10 06:59:10;;;;;;;;;9.50;9.50;;;;;23.87;43.16;101661.78;5053716;28;45993;-91
2022/08/10 07:01:38;;;;;;;;;8.00;8.00;;;;;23.66;43.06;101618.94;5054445;28;45392;-87
2022/08/10 07:04:23;;;;;;;;;8.75;8.75;;;;;23.84;42.68;101645.69;5054200;28;45663;-90
2022/08/10 07:06:49;;;;;;;;;9.00;8.25;;;;;23.94;42.65;101655.47;5053792;28;45537;-87
2022/08/10 07:09:18;;;;;;;;;10.00;10.00;;;;;23.99;42.74;101663.50;5053934;28;45446;-86
2022/08/10 07:11:45;;;;;;;;;10.00;8.50;;;;;23.75;42.33;101623.38;5052900;28;45303;-91
2022/08/10 07:14:13;;;;;;;;;9.50;9.00;;;;;24.05;42.40;101657.22;5059045;28;45357;-88
2022/08/10 07:16:41;;;;;;;;;9.00;9.00;;;;;24.04;42.39;101658.09;5074267;28;46589;-88
2022/08/10 07:19:09;;;;;;;;;12.00;10.00;;;;;24.00;42.21;101643.81;5074053;28;45907;-87
2022/08/10 07:21:38;;;;;;;;;10.25;10.00;;;;;24.04;41.91;101640.22;5074598;27;45484;-90
2022/08/10 07:24:06;;;;;;;;;10.00;8.75;;;;;23.99;42.74;101627.69;5077700;28;45378;-90
2022/08/10 07:26:35;;;;;;;;;9.25;9.00;;;;;24.08;42.49;101647.31;5077582;28;46313;-90
2022/08/10 07:29:01;;;;;;;;;9.00;8.00;;;;;24.11;41.94;101647.31;5093364;27;45420;-86
2022/08/10 07:31:28;;;;;;;;;8.25;8.25;;;;;24.17;42.26;101644.56;5077796;28;45508;-85
2022/08/10 07:33:54;;;;;;;;;10.25;10.25;;;;;24.09;42.29;101627.63;5077478;28;45363;-83
2022/08/10 07:36:22;;;;;;;;;10.25;10.00;;;;;24.29;41.50;101653.47;5076867;27;46303;-87
2022/08/10 07:38:50;;;;;;;;;11.25;10.75;;;;;24.34;41.78;101659.69;5093272;27;45536;-90
2022/08/10 07:41:18;;;;;;;;;9.50;9.25;;;;;24.12;42.13;101627.59;5077308;28;45322;-85
2022/08/10 07:43:46;;;;;;;;;8.00;8.00;;;;;24.16;41.89;101612.34;5077556;28;45695;-90
2022/08/10 07:46:13;;;;;;;;;9.75;9.25;;;;;24.28;42.03;101627.47;5076798;28;45544;-84
2022/08/10 07:48:49;;;;;;;;;10.00;10.00;;;;;24.36;41.71;101639.09;5077126;28;45964;-89
2022/08/10 07:51:18;;;;;;;;;10.50;9.50;;;;;24.34;41.48;101622.06;5077244;27;45433;-87
2022/08/10 07:53:49;;;;;;;;;9.00;9.00;;;;;24.57;42.05;101663.09;5093236;27;45282;-88
2022/08/10 07:56:17;;;;;;;;;11.00;10.00;;;;;24.58;41.61;101659.53;5077570;28;46313;-91
2022/08/10 07:58:54;;;;;;;;;9.25;9.25;;;;;24.61;41.48;101664.84;5092775;27;45403;-89
2022/08/10 08:01:26;;;;;;;;;13.00;10.00;;;;;24.63;41.79;101649.63;5077339;28;45278;-88
2022/08/10 08:03:53;;;;;;;;;10.50;10.50;;;;;24.57;41.21;101638.00;5077260;27;45467;-90
2022/08/10 08:06:18;;;;;;;;;10.00;10.00;;;;;24.65;41.29;101639.75;5076540;28;46443;-88
2022/08/10 08:08:45;;;;;;;;;10.25;10.00;;;;;24.57;41.52;101622.78;5076641;28;45370;-87
2022/08/10 08:11:12;;;;;;;;;8.75;8.00;;;;;24.83;40.90;101664.69;5077063;28;45433;-87
2022/08/10 08:13:39;;;;;;;;;10.00;10.00;;;;;24.63;41.13;101622.75;5077368;28;45535;-85
2022/08/10 08:16:06;;;;;;;;;11.00;11.00;;;;;24.83;40.69;101651.25;5077138;28;45370;-89
2022/08/10 08:18:34;;;;;;;;;10.25;10.25;;;;;24.84;40.41;101647.63;5076928;28;45838;-91
2022/08/10 08:21:01;;;;;;;;;9.50;9.50;;;;;24.83;40.63;101636.00;5076736;28;45271;-88
2022/08/10 08:23:28;;;;;;;;;11.25;11.25;;;;;24.74;40.42;101609.19;5077091;28;45476;-89
2022/08/10 08:25:55;;;;;;;;;13.00;12.00;;;;;24.87;40.60;101623.38;5075397;28;47038;-90
2022/08/10 08:28:22;;;;;;;;;11.00;10.25;;;;;25.00;40.66;101643.88;5092882;27;45950;-90
2022/08/10 08:30:48;;;;;;;;;11.00;11.00;;;;;24.99;40.38;101625.97;5076798;27;45473;-92
2022/08/10 08:33:15;;;;;;;;;10.75;10.25;;;;;24.98;40.36;101609.84;5091916;27;45462;-91
2022/08/10 08:35:42;;;;;;;;;11.25;11.00;;;;;25.14;40.56;101633.00;5077444;28;46515;-90
2022/08/10 08:38:08;;;;;;;;;11.00;10.75;;;;;25.08;40.02;101615.13;5076308;28;45244;-89
2022/08/10 08:40:36;;;;;;;;;11.75;11.00;;;;;25.28;40.38;101644.50;5077919;28;45715;-91
2022/08/10 08:43:20;;;;;;;;;11.00;11.00;;;;;25.37;39.56;101651.53;5092891;27;45460;-91
2022/08/10 08:46:27;;;;;;;;;12.50;11.25;;;;;25.40;40.11;101638.06;5092624;27;48537;-91
2022/08/10 08:49:04;;;;;;;;;11.75;11.00;;;;;25.45;39.93;101639.78;5076442;27;45437;-85
2022/08/10 08:51:47;;;;;;;;;12.25;12.00;;;;;25.30;39.92;101602.28;5075016;28;45377;-90
2022/08/10 08:54:37;;;;;;;;;13.75;12.00;;;;;25.58;39.22;101629.75;5076765;28;45409;-90
2022/08/10 08:57:21;;;;;;;;;12.75;12.00;;;;;25.64;39.41;101634.16;5076527;28;45415;-91
2022/08/10 09:00:05;;;;;;;;;10.75;10.50;;;;;25.67;39.24;101632.31;5092755;27;45394;-91
2022/08/10 09:03:19;;;;;;;;;11.75;11.00;;;;;25.72;39.38;101618.81;5075469;28;45409;-91
2022/08/10 09:05:53;;;;;;;;;11.75;10.25;;;;;25.83;39.15;101632.16;5053691;28;45557;-89
2022/08/10 09:08:32;;;;;;;;;12.50;12.00;;;;;25.59;38.73;101575.00;5053201;28;45597;-89
2022/08/10 09:11:29;;;;;;;;;10.25;10.00;;;;;25.93;38.81;101623.00;5068428;28;45488;-84
2022/08/10 09:14:12;;;;;;;;;12.75;11.75;;;;;25.91;38.34;101603.28;5091847;27;45332;-90
2022/08/10 09:16:50;;;;;;;;;10.75;10.00;;;;;26.05;38.52;101612.03;5075932;28;45640;-87
2022/08/10 09:19:30;;;;;;;;;11.00;10.75;;;;;26.00;38.38;101595.06;5076281;28;45400;-92
2022/08/10 09:22:12;;;;;;;;;12.25;11.25;;;;;26.18;38.21;101610.94;5091453;27;45870;-90
2022/08/10 09:24:59;;;;;;;;;10.00;9.75;;;;;26.28;38.17;101611.69;5076615;28;45431;-89
2022/08/10 09:27:47;;;;;;;;;11.00;11.00;;;;;26.34;37.46;101611.56;5075720;28;45315;-91
2022/08/10 09:30:21;;;;;;;;;11.00;10.75;;;;;26.41;37.76;101612.38;5075515;28;45521;-89
2022/08/10 09:32:51;;;;;;;;;9.25;9.25;;;;;26.32;37.59;101589.16;5075934;28;45378;-89
2022/08/10 09:35:30;;;;;;;;;10.75;10.25;;;;;26.23;37.75;101556.97;5076242;28;45356;-88
2022/08/10 09:38:25;;;;;;;;;11.00;11.00;;;;;26.10;37.31;101528.44;5075719;28;45279;-90
2022/08/10 09:40:57;;;;;;;;;12.75;12.50;;;;;26.64;36.96;101599.38;5072439;27;46665;-90
2022/08/10 09:44:01;;;;;;;;;10.75;10.25;;;;;26.72;37.06;101600.13;5075563;28;45415;-90
2022/08/10 09:46:48;;;;;;;;;12.00;12.00;;;;;26.82;37.34;101605.38;5073090;27;45424;-91
2022/08/10 09:49:46;;;;;;;;;12.25;11.75;;;;;26.90;37.13;101604.31;5075352;28;45499;-89
2022/08/10 09:52:27;;;;;;;;;11.00;11.00;;;;;26.96;36.90;101598.78;5065404;28;47031;-93
2022/08/10 09:54:52;;;;;;;;;10.75;10.75;;;;;27.03;36.80;101602.25;5075298;28;45284;-90
2022/08/10 09:57:33;;;;;;;;;12.25;12.25;;;;;27.08;36.70;101596.78;5075706;28;45483;-91
2022/08/10 10:00:11;;;;;;;;;13.50;12.50;;;;;26.84;36.42;101546.88;5075578;28;45270;-88
2022/08/10 10:03:15;;;;;;;;;12.75;11.50;;;;;27.22;36.37;101595.59;5075245;28;45433;-88
2022/08/10 10:06:05;;;;;;;;;12.00;12.00;;;;;27.31;36.36;101586.41;5073744;28;46105;-89
2022/08/10 10:08:59;;;;;;;;;12.25;12.00;;;;;27.38;36.37;101584.44;5074305;28;45285;-87
2022/08/10 10:11:40;;;;;;;;;12.25;12.25;;;;;27.27;35.94;101550.47;5075546;28;45594;-89
2022/08/10 10:14:34;;;;;;;;;10.00;9.75;;;;;27.53;36.19;101574.19;5074860;28;45337;-90
2022/08/10 10:17:11;;;;;;;;;12.75;12.50;;;;;27.29;36.08;101522.56;5075279;28;45571;-92
2022/08/10 10:20:17;;;;;;;;;15.00;13.75;;;;;27.69;35.76;101572.06;5090877;27;45470;-90
2022/08/10 10:23:41;;;;;;;;;11.25;11.25;;;;;27.74;35.46;101562.06;5090732;27;45501;-91
2022/08/10 10:26:23;;;;;;;;;12.50;12.50;;;;;27.75;35.29;101553.03;5035295;28;47166;-92
2022/08/10 10:29:25;;;;;;;;;9.50;9.50;;;;;27.95;35.01;101567.88;5091244;27;45917;-92
2022/08/10 10:32:00;;;;;;;;;12.25;11.00;;;;;27.98;34.63;101568.69;5075351;28;45347;-91
2022/08/10 10:34:38;;;;;;;;;13.00;12.75;;;;;28.09;34.99;101564.84;5075570;28;45334;-91
2022/08/10 10:37:06;;;;;;;;;11.25;11.00;;;;;28.03;34.91;101536.16;5090568;27;48634;-91
2022/08/10 10:39:33;;;;;;;;;13.00;13.00;;;;;28.12;34.71;101544.00;5075193;28;46042;-92
2022/08/10 10:42:36;;;;;;;;;11.00;11.00;;;;;28.33;34.02;101560.63;5090850;27;45552;-91
2022/08/10 10:45:05;;;;;;;;;12.00;11.25;;;;;28.42;34.02;101552.28;5074935;27;45474;-91
2022/08/10 10:47:59;;;;;;;;;11.00;11.00;;;;;28.51;33.24;101550.22;5074593;28;45445;-91
2022/08/10 10:50:40;;;;;;;;;11.00;10.25;;;;;28.56;33.88;101541.97;5072247;27;45393;-91
2022/08/10 10:53:23;;;;;;;;;12.25;12.00;;;;;28.67;33.32;101545.31;5090091;27;45367;-89
2022/08/10 10:55:59;;;;;;;;;11.75;10.50;;;;;28.68;33.52;101536.25;5090431;27;45357;-87
2022/08/10 10:58:36;;;;;;;;;12.00;11.50;;;;;28.77;32.85;101546.81;5077919;27;46191;-90
2022/08/10 11:01:19;;;;;;;;;11.00;10.50;;;;;28.88;32.37;101551.03;5078509;28;45891;-90
2022/08/10 11:04:13;;;;;;;;;10.50;10.00;;;;;28.66;32.39;101494.81;5078491;28;45532;-90
2022/08/10 11:07:13;;;;;;;;;10.25;9.50;;;;;29.04;32.13;101544.25;5078047;28;45343;-90
2022/08/10 11:09:44;;;;;;;;;9.00;8.75;;;;;29.08;31.73;101532.41;5077766;28;46637;-91
2022/08/10 11:12:23;;;;;;;;;10.25;9.50;;;;;28.95;31.61;101498.53;5077750;27;45449;-91
2022/08/10 11:15:07;;;;;;;;;9.25;9.25;;;;;29.08;32.16;101502.66;5077863;28;45388;-92
2022/08/10 11:17:41;;;;;;;;;12.75;11.75;;;;;29.16;31.03;101500.59;5078266;28;45370;-90
2022/08/10 11:20:23;;;;;;;;;11.75;11.75;;;;;29.33;31.30;101521.72;5078104;28;45527;-91
2022/08/10 11:22:51;;;;;;;;;12.50;12.00;;;;;29.43;31.06;101530.47;5077484;27;45511;-92
2022/08/10 11:25:29;;;;;;;;;11.00;11.00;;;;;29.27;30.90;101476.78;5093996;27;45415;-90
2022/08/10 11:28:12;;;;;;;;;11.00;11.00;;;;;29.55;30.80;101514.72;5077972;28;45772;-88
2022/08/10 11:31:30;;;;;;;;;11.50;10.75;;;;;29.62;31.12;101510.00;5078131;27;45422;-91
2022/08/10 11:34:00;;;;;;;;;7.00;7.00;;;;;29.64;30.53;101507.25;5053821;27;45973;-92
2022/08/10 11:37:01;;;;;;;;;11.00;10.75;;;;;29.77;29.79;101512.22;5077530;28;45325;-90
2022/08/10 11:39:27;;;;;;;;;11.00;10.25;;;;;29.86;30.95;101502.00;5093764;27;45294;-91
2022/08/10 11:42:02;;;;;;;;;13.00;13.00;;;;;29.91;29.93;101497.31;5093759;27;46375;-91
2022/08/10 11:44:28;;;;;;;;;9.75;9.50;;;;;29.97;30.60;101505.25;5076325;28;45346;-91
2022/08/10 11:47:06;;;;;;;;;12.00;12.00;;;;;29.96;29.46;101489.91;5077954;28;45459;-92
2022/08/10 11:49:52;;;;;;;;;10.75;10.50;;;;;30.08;28.91;101493.06;5075775;27;45434;-93